Terminal Aerodrome Forecast
Issued by NWS

Home | Current Version | Previous Version | Text Only | Print | Product List | Glossary On
Versions: 1 2 3 4 5 6 7 8 9 10 11 12 13
000
FTUS44 KLZK 271724
TAFLLQ
TAF
KLLQ 271724Z 2718/2818 34006KT P6SM VCSH SCT060 BKN250
      TEMPO 2721/2724 3SM TSRA BR BKN030CB
     FM280100 03005KT P6SM BKN100 BKN250
     FM280600 VRB03KT P6SM SCT250
     FM281500 07006KT P6SM FEW060=

USA.gov is the U.S. government's official web portal to all federal, state and local government web resources and services.